sensor_id;sensor_type;location;lat;lon;timestamp;P1;durP1;ratioP1;P2;durP2;ratioP2
64875;SDS011;51369;49.862;9.908;2023-06-22T00:01:48;17.27;;;12.35;;
64875;SDS011;51369;49.862;9.908;2023-06-22T00:04:14;17.08;;;11.63;;
64875;SDS011;51369;49.862;9.908;2023-06-22T00:06:40;16.42;;;11.98;;
64875;SDS011;51369;49.862;9.908;2023-06-22T00:09:05;18.30;;;11.98;;
64875;SDS011;51369;49.862;9.908;2023-06-22T00:11:32;16.60;;;11.55;;
64875;SDS011;51369;49.862;9.908;2023-06-22T00:13:58;15.45;;;12.68;;
64875;SDS011;51369;49.862;9.908;2023-06-22T00:16:24;17.23;;;13.18;;
64875;SDS011;51369;49.862;9.908;2023-06-22T00:18:49;16.30;;;12.25;;
64875;SDS011;51369;49.862;9.908;2023-06-22T00:21:14;14.68;;;12.82;;
64875;SDS011;51369;49.862;9.908;2023-06-22T00:23:40;17.65;;;12.98;;
64875;SDS011;51369;49.862;9.908;2023-06-22T00:26:06;16.20;;;12.18;;
64875;SDS011;51369;49.862;9.908;2023-06-22T00:28:32;16.38;;;13.25;;
64875;SDS011;51369;49.862;9.908;2023-06-22T00:30:59;18.83;;;15.15;;
64875;SDS011;51369;49.862;9.908;2023-06-22T00:33:25;18.08;;;15.30;;
64875;SDS011;51369;49.862;9.908;2023-06-22T00:35:52;20.98;;;15.55;;
64875;SDS011;51369;49.862;9.908;2023-06-22T00:38:18;18.65;;;15.43;;
64875;SDS011;51369;49.862;9.908;2023-06-22T00:40:43;17.50;;;15.38;;
64875;SDS011;51369;49.862;9.908;2023-06-22T00:43:09;19.42;;;14.60;;
64875;SDS011;51369;49.862;9.908;2023-06-22T00:45:35;16.83;;;14.75;;
64875;SDS011;51369;49.862;9.908;2023-06-22T00:48:00;19.27;;;14.02;;
64875;SDS011;51369;49.862;9.908;2023-06-22T00:50:28;15.40;;;13.13;;
64875;SDS011;51369;49.862;9.908;2023-06-22T00:52:58;15.55;;;12.48;;
64875;SDS011;51369;49.862;9.908;2023-06-22T00:55:25;17.10;;;13.20;;
64875;SDS011;51369;49.862;9.908;2023-06-22T00:57:52;18.10;;;13.20;;
64875;SDS011;51369;49.862;9.908;2023-06-22T01:00:20;20.33;;;14.57;;
64875;SDS011;51369;49.862;9.908;2023-06-22T01:02:49;17.00;;;14.35;;
64875;SDS011;51369;49.862;9.908;2023-06-22T01:05:19;18.85;;;14.45;;
64875;SDS011;51369;49.862;9.908;2023-06-22T01:07:52;15.63;;;13.85;;
64875;SDS011;51369;49.862;9.908;2023-06-22T01:10:41;18.52;;;14.02;;
64875;SDS011;51369;49.862;9.908;2023-06-22T01:16:15;21.73;;;13.63;;
64875;SDS011;51369;49.862;9.908;2023-06-22T01:18:46;16.83;;;14.30;;
64875;SDS011;51369;49.862;9.908;2023-06-22T01:21:15;17.02;;;13.73;;
64875;SDS011;51369;49.862;9.908;2023-06-22T01:29:17;17.73;;;12.68;;
64875;SDS011;51369;49.862;9.908;2023-06-22T01:31:47;17.40;;;13.05;;
64875;SDS011;51369;49.862;9.908;2023-06-22T01:34:15;19.77;;;13.15;;
64875;SDS011;51369;49.862;9.908;2023-06-22T01:36:42;18.92;;;14.55;;
64875;SDS011;51369;49.862;9.908;2023-06-22T01:39:09;16.60;;;13.88;;
64875;SDS011;51369;49.862;9.908;2023-06-22T01:41:36;20.65;;;14.88;;
64875;SDS011;51369;49.862;9.908;2023-06-22T01:44:03;16.58;;;14.52;;
64875;SDS011;51369;49.862;9.908;2023-06-22T01:46:31;21.45;;;16.35;;
64875;SDS011;51369;49.862;9.908;2023-06-22T01:48:57;22.85;;;15.57;;
64875;SDS011;51369;49.862;9.908;2023-06-22T01:51:23;17.58;;;14.50;;
64875;SDS011;51369;49.862;9.908;2023-06-22T01:53:49;20.73;;;15.65;;
64875;SDS011;51369;49.862;9.908;2023-06-22T01:56:16;18.60;;;15.77;;
64875;SDS011;51369;49.862;9.908;2023-06-22T01:58:45;20.38;;;15.90;;
64875;SDS011;51369;49.862;9.908;2023-06-22T02:01:16;21.25;;;15.05;;
64875;SDS011;51369;49.862;9.908;2023-06-22T02:03:53;20.15;;;15.20;;
64875;SDS011;51369;49.862;9.908;2023-06-22T02:06:30;34.63;;;17.67;;
64875;SDS011;51369;49.862;9.908;2023-06-22T02:09:02;24.60;;;18.08;;
64875;SDS011;51369;49.862;9.908;2023-06-22T02:11:31;28.27;;;18.63;;
64875;SDS011;51369;49.862;9.908;2023-06-22T02:13:58;25.88;;;18.02;;
64875;SDS011;51369;49.862;9.908;2023-06-22T02:16:24;20.83;;;16.50;;
64875;SDS011;51369;49.862;9.908;2023-06-22T02:18:54;24.35;;;17.27;;
64875;SDS011;51369;49.862;9.908;2023-06-22T02:21:21;21.27;;;17.95;;
64875;SDS011;51369;49.862;9.908;2023-06-22T02:23:47;21.33;;;18.23;;
64875;SDS011;51369;49.862;9.908;2023-06-22T02:26:12;21.60;;;17.67;;
64875;SDS011;51369;49.862;9.908;2023-06-22T02:28:38;24.67;;;18.08;;
64875;SDS011;51369;49.862;9.908;2023-06-22T02:31:03;21.25;;;17.88;;
64875;SDS011;51369;49.862;9.908;2023-06-22T02:33:29;25.95;;;18.48;;
64875;SDS011;51369;49.862;9.908;2023-06-22T02:35:54;20.10;;;17.52;;
64875;SDS011;51369;49.862;9.908;2023-06-22T02:38:21;22.42;;;18.60;;
64875;SDS011;51369;49.862;9.908;2023-06-22T02:40:50;26.95;;;20.25;;
64875;SDS011;51369;49.862;9.908;2023-06-22T02:43:16;22.92;;;19.02;;
64875;SDS011;51369;49.862;9.908;2023-06-22T02:45:42;24.25;;;20.00;;
64875;SDS011;51369;49.862;9.908;2023-06-22T02:48:09;25.65;;;19.92;;
64875;SDS011;51369;49.862;9.908;2023-06-22T02:50:35;21.13;;;17.08;;
64875;SDS011;51369;49.862;9.908;2023-06-22T02:53:01;20.70;;;16.63;;
64875;SDS011;51369;49.862;9.908;2023-06-22T02:55:29;23.00;;;16.02;;
64875;SDS011;51369;49.862;9.908;2023-06-22T02:57:57;23.77;;;17.90;;
64875;SDS011;51369;49.862;9.908;2023-06-22T03:00:25;24.73;;;18.95;;
64875;SDS011;51369;49.862;9.908;2023-06-22T03:02:55;24.05;;;20.20;;
64875;SDS011;51369;49.862;9.908;2023-06-22T03:05:22;22.80;;;19.25;;
64875;SDS011;51369;49.862;9.908;2023-06-22T03:07:47;27.88;;;19.27;;
64875;SDS011;51369;49.862;9.908;2023-06-22T03:10:13;21.83;;;19.63;;
64875;SDS011;51369;49.862;9.908;2023-06-22T03:12:39;23.95;;;19.92;;
64875;SDS011;51369;49.862;9.908;2023-06-22T03:15:06;24.42;;;19.98;;
64875;SDS011;51369;49.862;9.908;2023-06-22T03:17:33;25.33;;;20.23;;
64875;SDS011;51369;49.862;9.908;2023-06-22T03:20:00;27.33;;;20.27;;
64875;SDS011;51369;49.862;9.908;2023-06-22T03:22:26;23.02;;;19.67;;
64875;SDS011;51369;49.862;9.908;2023-06-22T03:24:51;24.00;;;19.33;;
64875;SDS011;51369;49.862;9.908;2023-06-22T03:27:17;24.33;;;17.83;;
64875;SDS011;51369;49.862;9.908;2023-06-22T03:29:43;23.88;;;18.70;;
64875;SDS011;51369;49.862;9.908;2023-06-22T03:32:10;19.70;;;17.60;;
64875;SDS011;51369;49.862;9.908;2023-06-22T03:34:36;19.83;;;17.70;;
64875;SDS011;51369;49.862;9.908;2023-06-22T03:37:01;21.30;;;17.65;;
64875;SDS011;51369;49.862;9.908;2023-06-22T03:39:27;19.30;;;17.17;;
64875;SDS011;51369;49.862;9.908;2023-06-22T03:41:52;19.88;;;17.58;;
64875;SDS011;51369;49.862;9.908;2023-06-22T03:44:18;26.05;;;17.63;;
64875;SDS011;51369;49.862;9.908;2023-06-22T03:46:43;20.33;;;18.15;;
64875;SDS011;51369;49.862;9.908;2023-06-22T03:49:09;22.60;;;18.33;;
64875;SDS011;51369;49.862;9.908;2023-06-22T03:51:34;24.33;;;19.67;;
64875;SDS011;51369;49.862;9.908;2023-06-22T03:53:59;21.55;;;18.73;;
64875;SDS011;51369;49.862;9.908;2023-06-22T03:56:25;20.80;;;17.67;;
64875;SDS011;51369;49.862;9.908;2023-06-22T03:58:50;23.40;;;19.05;;
64875;SDS011;51369;49.862;9.908;2023-06-22T04:01:16;21.02;;;18.80;;
64875;SDS011;51369;49.862;9.908;2023-06-22T04:03:42;21.35;;;19.25;;
64875;SDS011;51369;49.862;9.908;2023-06-22T04:06:08;25.17;;;19.92;;
64875;SDS011;51369;49.862;9.908;2023-06-22T04:08:33;20.85;;;18.65;;
64875;SDS011;51369;49.862;9.908;2023-06-22T04:10:59;24.67;;;20.00;;
64875;SDS011;51369;49.862;9.908;2023-06-22T04:13:24;23.30;;;18.75;;
64875;SDS011;51369;49.862;9.908;2023-06-22T04:15:49;21.83;;;18.55;;
64875;SDS011;51369;49.862;9.908;2023-06-22T04:18:15;21.75;;;19.02;;
64875;SDS011;51369;49.862;9.908;2023-06-22T04:20:40;32.05;;;21.40;;
64875;SDS011;51369;49.862;9.908;2023-06-22T04:23:05;25.92;;;20.20;;
64875;SDS011;51369;49.862;9.908;2023-06-22T04:25:31;23.05;;;20.65;;
64875;SDS011;51369;49.862;9.908;2023-06-22T04:27:56;26.20;;;19.55;;
64875;SDS011;51369;49.862;9.908;2023-06-22T04:30:21;22.77;;;20.35;;
64875;SDS011;51369;49.862;9.908;2023-06-22T04:32:47;25.92;;;20.77;;
64875;SDS011;51369;49.862;9.908;2023-06-22T04:35:21;24.13;;;19.45;;
64875;SDS011;51369;49.862;9.908;2023-06-22T04:37:47;27.02;;;20.27;;
64875;SDS011;51369;49.862;9.908;2023-06-22T04:40:14;26.42;;;20.15;;
64875;SDS011;51369;49.862;9.908;2023-06-22T04:42:40;24.58;;;21.52;;
64875;SDS011;51369;49.862;9.908;2023-06-22T04:45:17;25.60;;;20.38;;
64875;SDS011;51369;49.862;9.908;2023-06-22T04:47:43;25.45;;;20.08;;
64875;SDS011;51369;49.862;9.908;2023-06-22T04:50:10;24.33;;;21.15;;
64875;SDS011;51369;49.862;9.908;2023-06-22T04:52:36;26.13;;;20.83;;
64875;SDS011;51369;49.862;9.908;2023-06-22T04:55:02;28.00;;;20.83;;
64875;SDS011;51369;49.862;9.908;2023-06-22T04:57:28;25.15;;;20.05;;
64875;SDS011;51369;49.862;9.908;2023-06-22T05:00:01;26.30;;;20.58;;
64875;SDS011;51369;49.862;9.908;2023-06-22T05:02:38;26.80;;;20.17;;
64875;SDS011;51369;49.862;9.908;2023-06-22T05:05:04;24.55;;;20.58;;
64875;SDS011;51369;49.862;9.908;2023-06-22T05:07:33;27.67;;;21.90;;
64875;SDS011;51369;49.862;9.908;2023-06-22T05:09:59;25.63;;;20.90;;
64875;SDS011;51369;49.862;9.908;2023-06-22T05:12:25;26.08;;;21.05;;
64875;SDS011;51369;49.862;9.908;2023-06-22T05:14:50;28.65;;;21.48;;
64875;SDS011;51369;49.862;9.908;2023-06-22T05:17:15;27.27;;;22.10;;
64875;SDS011;51369;49.862;9.908;2023-06-22T05:19:44;27.02;;;20.33;;
64875;SDS011;51369;49.862;9.908;2023-06-22T05:22:16;29.13;;;21.35;;
64875;SDS011;51369;49.862;9.908;2023-06-22T05:24:43;25.02;;;21.58;;
64875;SDS011;51369;49.862;9.908;2023-06-22T05:27:09;24.10;;;21.15;;
64875;SDS011;51369;49.862;9.908;2023-06-22T05:29:35;25.08;;;21.58;;
64875;SDS011;51369;49.862;9.908;2023-06-22T05:32:01;25.00;;;22.42;;
64875;SDS011;51369;49.862;9.908;2023-06-22T05:34:27;24.95;;;22.27;;
64875;SDS011;51369;49.862;9.908;2023-06-22T05:36:53;26.65;;;22.60;;
64875;SDS011;51369;49.862;9.908;2023-06-22T05:39:18;26.10;;;21.60;;
64875;SDS011;51369;49.862;9.908;2023-06-22T05:41:44;27.10;;;22.35;;
64875;SDS011;51369;49.862;9.908;2023-06-22T05:44:10;26.90;;;21.67;;
64875;SDS011;51369;49.862;9.908;2023-06-22T05:46:36;24.67;;;20.58;;
64875;SDS011;51369;49.862;9.908;2023-06-22T05:49:01;24.85;;;21.45;;
64875;SDS011;51369;49.862;9.908;2023-06-22T05:51:26;25.92;;;20.42;;
64875;SDS011;51369;49.862;9.908;2023-06-22T05:53:52;26.15;;;19.27;;
64875;SDS011;51369;49.862;9.908;2023-06-22T05:56:18;21.42;;;18.92;;
64875;SDS011;51369;49.862;9.908;2023-06-22T05:58:43;24.63;;;19.98;;
64875;SDS011;51369;49.862;9.908;2023-06-22T06:01:08;25.45;;;19.58;;
64875;SDS011;51369;49.862;9.908;2023-06-22T06:03:34;23.48;;;19.65;;
64875;SDS011;51369;49.862;9.908;2023-06-22T06:06:05;28.95;;;20.45;;
64875;SDS011;51369;49.862;9.908;2023-06-22T06:08:31;25.98;;;20.17;;
64875;SDS011;51369;49.862;9.908;2023-06-22T06:10:56;21.08;;;18.63;;
64875;SDS011;51369;49.862;9.908;2023-06-22T06:13:22;28.65;;;18.70;;
64875;SDS011;51369;49.862;9.908;2023-06-22T06:15:48;25.70;;;18.88;;
64875;SDS011;51369;49.862;9.908;2023-06-22T06:18:13;23.50;;;19.35;;
64875;SDS011;51369;49.862;9.908;2023-06-22T06:20:39;28.60;;;18.42;;
64875;SDS011;51369;49.862;9.908;2023-06-22T06:23:04;20.08;;;17.77;;
64875;SDS011;51369;49.862;9.908;2023-06-22T06:25:29;19.70;;;17.52;;
64875;SDS011;51369;49.862;9.908;2023-06-22T06:27:54;22.70;;;19.35;;
64875;SDS011;51369;49.862;9.908;2023-06-22T06:30:20;22.17;;;19.05;;
64875;SDS011;51369;49.862;9.908;2023-06-22T06:32:46;23.67;;;18.50;;
64875;SDS011;51369;49.862;9.908;2023-06-22T06:35:13;23.25;;;18.60;;
64875;SDS011;51369;49.862;9.908;2023-06-22T06:37:40;26.25;;;19.63;;
64875;SDS011;51369;49.862;9.908;2023-06-22T06:40:07;25.95;;;19.15;;
64875;SDS011;51369;49.862;9.908;2023-06-22T06:42:35;23.13;;;18.27;;
64875;SDS011;51369;49.862;9.908;2023-06-22T06:45:03;23.05;;;18.20;;
64875;SDS011;51369;49.862;9.908;2023-06-22T06:47:29;23.35;;;18.88;;
64875;SDS011;51369;49.862;9.908;2023-06-22T06:49:55;19.42;;;17.27;;
64875;SDS011;51369;49.862;9.908;2023-06-22T06:52:20;22.73;;;18.58;;
64875;SDS011;51369;49.862;9.908;2023-06-22T06:54:45;22.92;;;18.77;;
64875;SDS011;51369;49.862;9.908;2023-06-22T06:57:11;22.23;;;18.15;;
64875;SDS011;51369;49.862;9.908;2023-06-22T06:59:38;25.40;;;17.40;;
64875;SDS011;51369;49.862;9.908;2023-06-22T07:02:04;23.85;;;18.33;;
64875;SDS011;51369;49.862;9.908;2023-06-22T07:04:29;25.50;;;18.23;;
64875;SDS011;51369;49.862;9.908;2023-06-22T07:06:55;22.45;;;18.73;;
64875;SDS011;51369;49.862;9.908;2023-06-22T07:09:20;20.23;;;17.17;;
64875;SDS011;51369;49.862;9.908;2023-06-22T07:11:46;25.52;;;17.75;;
64875;SDS011;51369;49.862;9.908;2023-06-22T07:14:11;20.17;;;18.05;;
64875;SDS011;51369;49.862;9.908;2023-06-22T07:16:37;22.55;;;17.13;;
64875;SDS011;51369;49.862;9.908;2023-06-22T07:19:02;21.00;;;18.20;;
64875;SDS011;51369;49.862;9.908;2023-06-22T07:21:27;20.77;;;17.23;;
64875;SDS011;51369;49.862;9.908;2023-06-22T07:23:52;20.42;;;17.15;;
64875;SDS011;51369;49.862;9.908;2023-06-22T07:26:19;20.75;;;17.48;;
64875;SDS011;51369;49.862;9.908;2023-06-22T07:28:44;19.90;;;17.25;;
64875;SDS011;51369;49.862;9.908;2023-06-22T07:31:09;22.13;;;17.40;;
64875;SDS011;51369;49.862;9.908;2023-06-22T07:33:35;21.42;;;17.10;;
64875;SDS011;51369;49.862;9.908;2023-06-22T07:36:00;22.60;;;17.83;;
64875;SDS011;51369;49.862;9.908;2023-06-22T07:38:26;21.23;;;18.75;;
64875;SDS011;51369;49.862;9.908;2023-06-22T07:40:52;22.98;;;18.45;;
64875;SDS011;51369;49.862;9.908;2023-06-22T07:43:18;20.48;;;18.30;;
64875;SDS011;51369;49.862;9.908;2023-06-22T07:45:48;21.20;;;18.08;;
64875;SDS011;51369;49.862;9.908;2023-06-22T07:48:17;22.33;;;18.60;;
64875;SDS011;51369;49.862;9.908;2023-06-22T07:50:44;19.80;;;17.83;;
64875;SDS011;51369;49.862;9.908;2023-06-22T07:53:10;19.75;;;17.60;;
64875;SDS011;51369;49.862;9.908;2023-06-22T07:55:35;20.95;;;17.33;;
64875;SDS011;51369;49.862;9.908;2023-06-22T07:58:00;27.33;;;17.95;;
64875;SDS011;51369;49.862;9.908;2023-06-22T08:00:26;20.33;;;16.67;;
64875;SDS011;51369;49.862;9.908;2023-06-22T08:02:51;22.00;;;17.40;;
64875;SDS011;51369;49.862;9.908;2023-06-22T08:05:16;22.15;;;16.92;;
64875;SDS011;51369;49.862;9.908;2023-06-22T08:07:42;21.45;;;16.88;;
64875;SDS011;51369;49.862;9.908;2023-06-22T08:10:12;20.70;;;17.77;;
64875;SDS011;51369;49.862;9.908;2023-06-22T08:12:39;19.27;;;17.38;;
64875;SDS011;51369;49.862;9.908;2023-06-22T08:15:05;20.15;;;17.13;;
64875;SDS011;51369;49.862;9.908;2023-06-22T08:17:31;23.92;;;18.60;;
64875;SDS011;51369;49.862;9.908;2023-06-22T08:19:56;19.50;;;17.42;;
64875;SDS011;51369;49.862;9.908;2023-06-22T08:22:22;20.63;;;18.40;;
64875;SDS011;51369;49.862;9.908;2023-06-22T08:24:47;20.67;;;17.50;;
64875;SDS011;51369;49.862;9.908;2023-06-22T08:27:13;21.67;;;17.30;;
64875;SDS011;51369;49.862;9.908;2023-06-22T08:29:39;24.55;;;18.00;;
64875;SDS011;51369;49.862;9.908;2023-06-22T08:32:07;21.27;;;18.20;;
64875;SDS011;51369;49.862;9.908;2023-06-22T08:34:35;19.88;;;16.52;;
64875;SDS011;51369;49.862;9.908;2023-06-22T08:37:01;19.77;;;16.75;;
64875;SDS011;51369;49.862;9.908;2023-06-22T08:39:26;21.02;;;16.58;;
64875;SDS011;51369;49.862;9.908;2023-06-22T08:41:52;17.73;;;16.02;;
64875;SDS011;51369;49.862;9.908;2023-06-22T08:44:18;17.02;;;15.35;;
64875;SDS011;51369;49.862;9.908;2023-06-22T08:46:43;16.30;;;13.82;;
64875;SDS011;51369;49.862;9.908;2023-06-22T08:49:09;18.85;;;14.77;;
64875;SDS011;51369;49.862;9.908;2023-06-22T08:51:35;23.60;;;14.18;;
64875;SDS011;51369;49.862;9.908;2023-06-22T08:54:01;14.40;;;12.90;;
64875;SDS011;51369;49.862;9.908;2023-06-22T08:56:26;14.60;;;12.60;;
64875;SDS011;51369;49.862;9.908;2023-06-22T08:58:51;14.57;;;12.77;;
64875;SDS011;51369;49.862;9.908;2023-06-22T09:01:17;15.10;;;13.05;;
64875;SDS011;51369;49.862;9.908;2023-06-22T09:03:42;15.77;;;13.73;;
64875;SDS011;51369;49.862;9.908;2023-06-22T09:06:08;14.00;;;12.07;;
64875;SDS011;51369;49.862;9.908;2023-06-22T09:08:37;14.23;;;12.70;;
64875;SDS011;51369;49.862;9.908;2023-06-22T09:11:02;13.65;;;11.63;;
64875;SDS011;51369;49.862;9.908;2023-06-22T09:13:29;13.20;;;10.65;;
64875;SDS011;51369;49.862;9.908;2023-06-22T09:15:55;12.40;;;11.10;;
64875;SDS011;51369;49.862;9.908;2023-06-22T09:18:21;14.23;;;11.73;;
64875;SDS011;51369;49.862;9.908;2023-06-22T09:20:46;14.20;;;12.10;;
64875;SDS011;51369;49.862;9.908;2023-06-22T09:23:11;12.38;;;11.18;;
64875;SDS011;51369;49.862;9.908;2023-06-22T09:25:37;16.73;;;11.52;;
64875;SDS011;51369;49.862;9.908;2023-06-22T09:28:02;13.70;;;11.18;;
64875;SDS011;51369;49.862;9.908;2023-06-22T09:30:28;12.00;;;10.75;;
64875;SDS011;51369;49.862;9.908;2023-06-22T09:32:53;13.10;;;11.30;;
64875;SDS011;51369;49.862;9.908;2023-06-22T09:35:19;13.45;;;11.07;;
64875;SDS011;51369;49.862;9.908;2023-06-22T09:37:45;14.30;;;12.48;;
64875;SDS011;51369;49.862;9.908;2023-06-22T09:40:10;13.70;;;11.18;;
64875;SDS011;51369;49.862;9.908;2023-06-22T09:42:38;11.48;;;10.38;;
64875;SDS011;51369;49.862;9.908;2023-06-22T09:45:04;11.55;;;10.32;;
64875;SDS011;51369;49.862;9.908;2023-06-22T09:47:31;11.70;;;10.15;;
64875;SDS011;51369;49.862;9.908;2023-06-22T09:49:56;14.52;;;9.88;;
64875;SDS011;51369;49.862;9.908;2023-06-22T09:52:24;11.20;;;9.93;;
64875;SDS011;51369;49.862;9.908;2023-06-22T09:54:49;11.27;;;10.10;;
64875;SDS011;51369;49.862;9.908;2023-06-22T09:57:15;14.32;;;10.63;;
64875;SDS011;51369;49.862;9.908;2023-06-22T09:59:40;12.48;;;10.55;;
64875;SDS011;51369;49.862;9.908;2023-06-22T10:02:06;13.00;;;10.23;;
64875;SDS011;51369;49.862;9.908;2023-06-22T10:04:32;16.50;;;9.80;;
64875;SDS011;51369;49.862;9.908;2023-06-22T10:06:57;11.25;;;9.98;;
64875;SDS011;51369;49.862;9.908;2023-06-22T10:09:23;13.30;;;9.57;;
64875;SDS011;51369;49.862;9.908;2023-06-22T10:11:48;10.70;;;9.60;;
64875;SDS011;51369;49.862;9.908;2023-06-22T10:14:13;12.95;;;10.10;;
64875;SDS011;51369;49.862;9.908;2023-06-22T10:16:39;11.00;;;9.77;;
64875;SDS011;51369;49.862;9.908;2023-06-22T10:19:06;10.98;;;9.05;;
64875;SDS011;51369;49.862;9.908;2023-06-22T10:21:31;12.07;;;9.88;;
64875;SDS011;51369;49.862;9.908;2023-06-22T10:23:57;16.15;;;9.65;;
64875;SDS011;51369;49.862;9.908;2023-06-22T10:26:24;15.18;;;9.10;;
64875;SDS011;51369;49.862;9.908;2023-06-22T10:28:50;12.68;;;9.68;;
64875;SDS011;51369;49.862;9.908;2023-06-22T10:31:15;11.95;;;8.77;;
64875;SDS011;51369;49.862;9.908;2023-06-22T10:33:41;8.93;;;8.02;;
64875;SDS011;51369;49.862;9.908;2023-06-22T10:36:08;12.45;;;8.70;;
64875;SDS011;51369;49.862;9.908;2023-06-22T10:38:34;14.07;;;7.90;;
64875;SDS011;51369;49.862;9.908;2023-06-22T10:41:00;14.80;;;9.23;;
64875;SDS011;51369;49.862;9.908;2023-06-22T10:43:25;13.90;;;7.95;;
64875;SDS011;51369;49.862;9.908;2023-06-22T10:45:50;12.82;;;8.55;;
64875;SDS011;51369;49.862;9.908;2023-06-22T10:48:15;12.82;;;8.85;;
64875;SDS011;51369;49.862;9.908;2023-06-22T10:50:41;8.30;;;7.50;;
64875;SDS011;51369;49.862;9.908;2023-06-22T10:53:06;14.15;;;9.07;;
64875;SDS011;51369;49.862;9.908;2023-06-22T10:55:31;13.00;;;8.75;;
64875;SDS011;51369;49.862;9.908;2023-06-22T10:57:57;12.05;;;8.75;;
64875;SDS011;51369;49.862;9.908;2023-06-22T11:00:22;11.93;;;8.18;;
64875;SDS011;51369;49.862;9.908;2023-06-22T11:02:47;11.60;;;7.20;;
64875;SDS011;51369;49.862;9.908;2023-06-22T11:05:13;12.15;;;8.70;;
64875;SDS011;51369;49.862;9.908;2023-06-22T11:07:41;9.95;;;7.97;;
64875;SDS011;51369;49.862;9.908;2023-06-22T11:10:08;11.07;;;7.72;;
64875;SDS011;51369;49.862;9.908;2023-06-22T11:12:33;9.98;;;7.47;;
64875;SDS011;51369;49.862;9.908;2023-06-22T11:14:59;12.52;;;7.88;;
64875;SDS011;51369;49.862;9.908;2023-06-22T11:17:24;16.17;;;7.95;;
64875;SDS011;51369;49.862;9.908;2023-06-22T11:19:50;12.05;;;8.18;;
64875;SDS011;51369;49.862;9.908;2023-06-22T11:22:15;11.23;;;7.57;;
64875;SDS011;51369;49.862;9.908;2023-06-22T11:24:41;9.30;;;7.15;;
64875;SDS011;51369;49.862;9.908;2023-06-22T11:27:06;8.40;;;7.65;;
64875;SDS011;51369;49.862;9.908;2023-06-22T11:29:32;9.48;;;7.47;;
64875;SDS011;51369;49.862;9.908;2023-06-22T11:31:57;13.13;;;7.63;;
64875;SDS011;51369;49.862;9.908;2023-06-22T11:34:22;11.63;;;7.70;;
64875;SDS011;51369;49.862;9.908;2023-06-22T11:36:47;8.18;;;7.20;;
64875;SDS011;51369;49.862;9.908;2023-06-22T11:39:13;14.00;;;7.45;;
64875;SDS011;51369;49.862;9.908;2023-06-22T11:41:40;11.68;;;6.78;;
64875;SDS011;51369;49.862;9.908;2023-06-22T11:44:06;11.73;;;7.32;;
64875;SDS011;51369;49.862;9.908;2023-06-22T11:46:32;13.18;;;7.47;;
64875;SDS011;51369;49.862;9.908;2023-06-22T11:48:58;11.02;;;6.68;;
64875;SDS011;51369;49.862;9.908;2023-06-22T11:51:23;9.25;;;6.90;;
64875;SDS011;51369;49.862;9.908;2023-06-22T11:53:48;12.88;;;6.78;;
64875;SDS011;51369;49.862;9.908;2023-06-22T11:56:14;8.40;;;6.93;;
64875;SDS011;51369;49.862;9.908;2023-06-22T11:58:39;11.23;;;7.05;;
64875;SDS011;51369;49.862;9.908;2023-06-22T12:01:04;14.60;;;6.97;;
64875;SDS011;51369;49.862;9.908;2023-06-22T12:03:30;18.10;;;7.60;;
64875;SDS011;51369;49.862;9.908;2023-06-22T12:05:55;11.63;;;6.70;;
64875;SDS011;51369;49.862;9.908;2023-06-22T12:08:21;7.20;;;6.47;;
64875;SDS011;51369;49.862;9.908;2023-06-22T12:10:49;10.63;;;7.05;;
64875;SDS011;51369;49.862;9.908;2023-06-22T12:13:15;14.82;;;6.78;;
64875;SDS011;51369;49.862;9.908;2023-06-22T12:15:40;11.50;;;7.18;;
64875;SDS011;51369;49.862;9.908;2023-06-22T12:18:05;10.25;;;6.93;;
64875;SDS011;51369;49.862;9.908;2023-06-22T12:20:31;16.10;;;8.05;;
64875;SDS011;51369;49.862;9.908;2023-06-22T12:22:58;9.90;;;7.22;;
64875;SDS011;51369;49.862;9.908;2023-06-22T12:25:23;12.07;;;6.80;;
64875;SDS011;51369;49.862;9.908;2023-06-22T12:27:49;9.90;;;6.78;;
64875;SDS011;51369;49.862;9.908;2023-06-22T12:30:15;11.40;;;7.25;;
64875;SDS011;51369;49.862;9.908;2023-06-22T12:32:41;11.95;;;7.43;;
64875;SDS011;51369;49.862;9.908;2023-06-22T12:35:06;11.55;;;6.68;;
64875;SDS011;51369;49.862;9.908;2023-06-22T12:37:36;15.50;;;7.60;;
64875;SDS011;51369;49.862;9.908;2023-06-22T12:40:02;14.07;;;7.25;;
64875;SDS011;51369;49.862;9.908;2023-06-22T12:42:29;14.30;;;8.27;;
64875;SDS011;51369;49.862;9.908;2023-06-22T12:44:54;10.80;;;7.15;;
64875;SDS011;51369;49.862;9.908;2023-06-22T12:47:19;14.35;;;7.75;;
64875;SDS011;51369;49.862;9.908;2023-06-22T12:49:46;15.77;;;7.80;;
64875;SDS011;51369;49.862;9.908;2023-06-22T12:52:11;13.63;;;7.75;;
64875;SDS011;51369;49.862;9.908;2023-06-22T12:54:36;14.68;;;7.03;;
64875;SDS011;51369;49.862;9.908;2023-06-22T12:57:02;13.63;;;7.78;;
64875;SDS011;51369;49.862;9.908;2023-06-22T12:59:27;11.73;;;7.32;;
64875;SDS011;51369;49.862;9.908;2023-06-22T13:01:52;13.80;;;7.22;;
64875;SDS011;51369;49.862;9.908;2023-06-22T13:04:18;15.80;;;7.45;;
64875;SDS011;51369;49.862;9.908;2023-06-22T13:06:44;12.38;;;7.43;;
64875;SDS011;51369;49.862;9.908;2023-06-22T13:09:13;11.63;;;7.20;;
64875;SDS011;51369;49.862;9.908;2023-06-22T13:11:39;12.98;;;7.93;;
64875;SDS011;51369;49.862;9.908;2023-06-22T13:14:05;13.73;;;7.05;;
64875;SDS011;51369;49.862;9.908;2023-06-22T13:16:30;13.00;;;7.03;;
64875;SDS011;51369;49.862;9.908;2023-06-22T13:18:55;14.55;;;7.18;;
64875;SDS011;51369;49.862;9.908;2023-06-22T13:21:21;13.98;;;7.68;;
64875;SDS011;51369;49.862;9.908;2023-06-22T13:23:46;17.33;;;7.35;;
64875;SDS011;51369;49.862;9.908;2023-06-22T13:26:11;11.18;;;7.30;;
64875;SDS011;51369;49.862;9.908;2023-06-22T13:28:37;11.98;;;7.40;;
64875;SDS011;51369;49.862;9.908;2023-06-22T13:31:02;12.25;;;7.68;;
64875;SDS011;51369;49.862;9.908;2023-06-22T13:33:27;17.42;;;7.53;;
64875;SDS011;51369;49.862;9.908;2023-06-22T13:35:53;10.65;;;6.82;;
64875;SDS011;51369;49.862;9.908;2023-06-22T13:38:18;9.52;;;6.63;;
64875;SDS011;51369;49.862;9.908;2023-06-22T13:40:44;14.63;;;8.15;;
64875;SDS011;51369;49.862;9.908;2023-06-22T13:43:09;10.90;;;7.13;;
64875;SDS011;51369;49.862;9.908;2023-06-22T13:45:34;12.50;;;7.57;;
64875;SDS011;51369;49.862;9.908;2023-06-22T13:48:00;12.93;;;6.82;;
64875;SDS011;51369;49.862;9.908;2023-06-22T13:50:25;18.73;;;7.88;;
64875;SDS011;51369;49.862;9.908;2023-06-22T13:52:50;15.07;;;7.65;;
64875;SDS011;51369;49.862;9.908;2023-06-22T13:55:16;14.48;;;7.80;;
64875;SDS011;51369;49.862;9.908;2023-06-22T13:57:41;13.65;;;7.80;;
64875;SDS011;51369;49.862;9.908;2023-06-22T14:00:08;17.23;;;7.88;;
64875;SDS011;51369;49.862;9.908;2023-06-22T14:02:37;12.50;;;8.25;;
64875;SDS011;51369;49.862;9.908;2023-06-22T14:05:04;12.27;;;7.28;;
64875;SDS011;51369;49.862;9.908;2023-06-22T14:07:30;11.90;;;6.63;;
64875;SDS011;51369;49.862;9.908;2023-06-22T14:09:56;13.63;;;7.75;;
64875;SDS011;51369;49.862;9.908;2023-06-22T14:12:22;18.15;;;8.65;;
64875;SDS011;51369;49.862;9.908;2023-06-22T14:14:48;14.10;;;8.43;;
64875;SDS011;51369;49.862;9.908;2023-06-22T14:17:13;15.45;;;7.72;;
64875;SDS011;51369;49.862;9.908;2023-06-22T14:19:38;12.32;;;7.03;;
64875;SDS011;51369;49.862;9.908;2023-06-22T14:22:04;13.02;;;7.50;;
64875;SDS011;51369;49.862;9.908;2023-06-22T14:24:29;17.40;;;7.85;;
64875;SDS011;51369;49.862;9.908;2023-06-22T14:26:55;12.95;;;7.15;;
64875;SDS011;51369;49.862;9.908;2023-06-22T14:29:21;12.73;;;6.68;;